Time;durP1;ratioP1;P1;durP2;ratioP2;P2;SDS_P1;SDS_P2;PMS_P1;PMS_P2;Temp;Humidity;BMP_temperature;BMP_pressure;BME280_temperature;BME280_humidity;BME280_pressure;Samples;Min_cycle;Max_cycle;Signal;HPM_P1;HPM_P2
2021/08/08 00:00:15;;;;;;;1.90;1.10;;;17.60;96.30;;;;;;4898221;29;20485;-65
2021/08/08 00:02:41;;;;;;;2.95;1.10;;;17.60;96.30;;;;;;4898169;29;20029;-65
2021/08/08 00:05:09;;;;;;;3.25;0.90;;;17.60;96.50;;;;;;4898623;29;20043;-65
2021/08/08 00:07:35;;;;;;;1.23;0.90;;;17.60;96.90;;;;;;4898083;29;20035;-65
2021/08/08 00:10:01;;;;;;;3.78;1.20;;;17.50;96.70;;;;;;4898066;29;20116;-65
2021/08/08 00:12:27;;;;;;;1.75;1.25;;;17.60;97.00;;;;;;4897772;29;20085;-65
2021/08/08 00:14:53;;;;;;;1.60;1.20;;;17.50;97.10;;;;;;4898174;29;20036;-65
2021/08/08 00:17:19;;;;;;;2.00;1.08;;;17.50;97.10;;;;;;4897574;29;20024;-65
2021/08/08 00:19:45;;;;;;;2.10;1.27;;;17.50;97.30;;;;;;4898193;29;20028;-65
2021/08/08 00:22:11;;;;;;;1.25;1.00;;;17.50;97.50;;;;;;4897883;29;20540;-65
2021/08/08 00:24:36;;;;;;;2.70;1.20;;;17.40;97.50;;;;;;4898113;29;20472;-65
2021/08/08 00:27:03;;;;;;;2.53;1.25;;;17.50;97.70;;;;;;4897344;29;20028;-65
2021/08/08 00:29:28;;;;;;;2.83;1.27;;;17.40;97.80;;;;;;4897755;29;20024;-65
2021/08/08 00:31:54;;;;;;;2.28;1.02;;;17.40;98.10;;;;;;4897599;29;20473;-65
2021/08/08 00:34:20;;;;;;;2.92;1.00;;;17.40;98.30;;;;;;4897702;29;20036;-65
2021/08/08 00:36:45;;;;;;;1.80;1.10;;;17.40;98.00;;;;;;4897705;29;20510;-65
2021/08/08 00:39:14;;;;;;;2.40;1.00;;;17.40;98.00;;;;;;4897707;29;20040;-65
2021/08/08 00:41:40;;;;;;;1.75;1.23;;;17.40;98.00;;;;;;4897697;29;20029;-65
2021/08/08 00:44:06;;;;;;;3.58;1.30;;;17.40;98.00;;;;;;4897372;29;20036;-65
2021/08/08 00:46:32;;;;;;;3.10;1.17;;;17.40;98.10;;;;;;4897285;29;20115;-65
2021/08/08 00:48:58;;;;;;;1.42;1.00;;;17.40;98.20;;;;;;4897163;29;20060;-65
2021/08/08 00:51:27;;;;;;;1.42;1.20;;;17.30;98.20;;;;;;4897167;29;20119;-65
2021/08/08 00:53:54;;;;;;;1.65;0.93;;;17.30;98.30;;;;;;4897103;29;20029;-65
2021/08/08 00:56:20;;;;;;;2.38;0.98;;;17.30;98.30;;;;;;4897206;29;20033;-65
2021/08/08 00:58:46;;;;;;;1.85;1.15;;;17.30;98.30;;;;;;4897189;29;20021;-65
2021/08/08 01:01:16;;;;;;;2.03;1.30;;;17.30;98.40;;;;;;4897124;29;20052;-65
2021/08/08 01:03:43;;;;;;;1.40;1.30;;;17.30;98.40;;;;;;4897274;29;20429;-65
2021/08/08 01:06:20;;;;;;;4.72;2.00;;;17.30;98.30;;;;;;4897444;29;20043;-65
2021/08/08 01:08:52;;;;;;;3.20;1.00;;;17.30;98.30;;;;;;4897117;29;20025;-65
2021/08/08 01:11:20;;;;;;;3.38;0.95;;;17.30;98.30;;;;;;4897225;29;20085;-65
2021/08/08 01:13:47;;;;;;;1.92;1.10;;;17.30;98.30;;;;;;4897246;29;20037;-65
2021/08/08 01:16:14;;;;;;;3.67;1.10;;;17.30;98.30;;;;;;4896864;29;20039;-65
2021/08/08 01:47:50;;;;;;;1.70;1.13;;;17.20;99.90;;;;;;4900324;29;20099;-65
2021/08/08 01:50:17;;;;;;;2.72;1.23;;;17.20;99.90;;;;;;4900475;29;20072;-65
2021/08/08 01:52:43;;;;;;;2.58;1.25;;;17.10;99.90;;;;;;4900577;29;20044;-65
2021/08/08 01:55:10;;;;;;;2.30;1.17;;;17.10;99.90;;;;;;4900696;29;20123;-65
2021/08/08 01:57:36;;;;;;;3.50;1.33;;;17.10;99.90;;;;;;4900217;29;20032;-65
2021/08/08 02:00:06;;;;;;;2.95;1.38;;;17.10;99.90;;;;;;4900339;29;20124;-65
2021/08/08 02:02:32;;;;;;;4.00;1.30;;;17.10;99.90;;;;;;4900008;29;20040;-65
2021/08/08 02:04:58;;;;;;;4.70;1.52;;;17.10;99.90;;;;;;4900601;29;20052;-65
2021/08/08 02:07:24;;;;;;;2.05;1.13;;;17.00;99.90;;;;;;4900340;29;20108;-65
2021/08/08 02:09:49;;;;;;;2.33;1.38;;;17.00;99.90;;;;;;4900531;29;20032;-65
2021/08/08 02:12:15;;;;;;;2.28;1.30;;;17.00;99.90;;;;;;4900100;29;20396;-65
2021/08/08 02:14:41;;;;;;;3.13;1.30;;;17.00;99.90;;;;;;4900060;29;20669;-65
2021/08/08 02:17:07;;;;;;;3.50;1.30;;;16.90;99.90;;;;;;4900019;29;20437;-65
2021/08/08 02:19:33;;;;;;;4.50;1.40;;;16.90;99.90;;;;;;4900493;29;20056;-65
2021/08/08 02:22:02;;;;;;;5.05;1.60;;;16.90;99.90;;;;;;4900579;29;20401;-65
2021/08/08 02:24:29;;;;;;;2.90;1.30;;;16.90;99.90;;;;;;4899833;29;20032;-65
2021/08/08 02:26:58;;;;;;;4.28;1.33;;;16.90;99.90;;;;;;4900523;29;20372;-65
2021/08/08 02:29:24;;;;;;;4.20;1.50;;;16.90;99.90;;;;;;4899990;29;20058;-65
2021/08/08 02:31:50;;;;;;;2.53;1.40;;;16.90;99.90;;;;;;4900104;29;20469;-65
2021/08/08 02:34:16;;;;;;;3.08;1.20;;;16.80;99.90;;;;;;4899928;29;20119;-65
2021/08/08 02:36:42;;;;;;;3.45;1.45;;;16.80;99.90;;;;;;4899902;29;20269;-65
2021/08/08 02:39:09;;;;;;;2.50;1.25;;;16.90;99.90;;;;;;4899688;29;20385;-65
2021/08/08 02:41:35;;;;;;;2.30;1.60;;;16.80;99.90;;;;;;4899423;29;20028;-65
2021/08/08 02:44:01;;;;;;;3.55;1.75;;;16.90;99.90;;;;;;4899633;29;20377;-65
2021/08/08 02:46:27;;;;;;;6.00;1.73;;;16.90;99.90;;;;;;4899502;29;20094;-65
2021/08/08 02:48:53;;;;;;;2.58;1.60;;;16.80;99.90;;;;;;4899413;29;20059;-65
2021/08/08 02:51:18;;;;;;;1.90;1.33;;;16.80;99.90;;;;;;4899804;29;20112;-65
2021/08/08 02:53:44;;;;;;;3.78;1.40;;;16.90;99.90;;;;;;4899149;29;20032;-65
2021/08/08 02:56:11;;;;;;;3.45;1.50;;;16.80;99.90;;;;;;4899535;29;20028;-65
2021/08/08 02:58:37;;;;;;;3.13;1.80;;;16.80;99.90;;;;;;4899153;29;20028;-65
2021/08/08 03:01:06;;;;;;;2.65;1.50;;;16.80;99.90;;;;;;4899346;29;20048;-65
2021/08/08 03:03:31;;;;;;;2.70;1.50;;;16.80;99.90;;;;;;4899163;29;20392;-65
2021/08/08 03:05:58;;;;;;;3.50;1.30;;;16.80;99.90;;;;;;4899534;29;20024;-65
2021/08/08 03:08:24;;;;;;;4.47;1.45;;;16.80;99.90;;;;;;4899398;29;20037;-65
2021/08/08 03:10:50;;;;;;;2.60;1.52;;;16.80;99.90;;;;;;4899468;29;20051;-65
2021/08/08 03:13:15;;;;;;;3.50;1.60;;;16.80;99.90;;;;;;4899096;29;20127;-65
2021/08/08 03:15:41;;;;;;;3.75;1.10;;;16.80;99.90;;;;;;4898956;29;20090;-65
2021/08/08 03:18:07;;;;;;;3.53;1.30;;;16.80;99.90;;;;;;4899153;29;20040;-65
2021/08/08 03:20:33;;;;;;;5.05;1.55;;;16.80;99.90;;;;;;4898940;29;20028;-65
2021/08/08 03:22:59;;;;;;;3.58;1.55;;;16.80;99.90;;;;;;4898909;29;20028;-65
2021/08/08 03:25:24;;;;;;;2.92;1.48;;;16.80;99.90;;;;;;4898996;29;20044;-65
2021/08/08 03:27:50;;;;;;;2.70;1.27;;;16.80;99.90;;;;;;4899012;29;20024;-65
2021/08/08 03:30:16;;;;;;;2.13;1.42;;;16.80;99.90;;;;;;4899107;29;20028;-65
2021/08/08 03:32:44;;;;;;;2.42;1.50;;;16.80;99.90;;;;;;4898502;29;20191;-65
2021/08/08 03:35:11;;;;;;;2.30;1.40;;;16.80;99.90;;;;;;4898900;29;20043;-65
2021/08/08 03:37:37;;;;;;;2.28;1.50;;;16.90;99.90;;;;;;4898413;29;20024;-65
2021/08/08 03:40:04;;;;;;;3.55;1.10;;;16.90;99.90;;;;;;4898641;29;20036;-65
2021/08/08 03:42:30;;;;;;;3.42;1.30;;;16.90;99.90;;;;;;4898373;29;20608;-65
2021/08/08 03:44:55;;;;;;;2.80;1.45;;;16.90;99.90;;;;;;4898541;29;20080;-65
2021/08/08 03:47:21;;;;;;;2.70;1.75;;;16.90;99.90;;;;;;4898974;29;20116;-65
2021/08/08 03:49:47;;;;;;;6.47;1.50;;;16.90;99.90;;;;;;4898118;29;20456;-65
2021/08/08 03:52:12;;;;;;;3.17;1.40;;;16.90;99.90;;;;;;4898408;29;20037;-65
2021/08/08 03:54:38;;;;;;;3.28;1.35;;;16.90;99.90;;;;;;4898069;29;20037;-65
2021/08/08 03:57:04;;;;;;;3.17;1.20;;;16.90;99.90;;;;;;4898616;29;20116;-65
2021/08/08 03:59:30;;;;;;;3.20;1.60;;;16.80;99.90;;;;;;4898133;29;20473;-65
2021/08/08 04:01:55;;;;;;;2.00;1.30;;;16.80;99.90;;;;;;4897840;29;20113;-65
2021/08/08 04:04:21;;;;;;;5.35;1.65;;;16.80;99.90;;;;;;4898145;29;20438;-65
2021/08/08 04:06:47;;;;;;;3.05;1.50;;;16.80;99.90;;;;;;4898296;29;20024;-65
2021/08/08 04:09:13;;;;;;;8.32;1.23;;;16.90;99.90;;;;;;4897952;29;20056;-65
2021/08/08 04:11:39;;;;;;;3.50;1.83;;;16.90;99.90;;;;;;4897937;29;20063;-65
2021/08/08 04:14:05;;;;;;;2.72;1.20;;;16.90;99.90;;;;;;4897874;29;20079;-65
2021/08/08 04:16:30;;;;;;;1.88;1.17;;;17.00;99.90;;;;;;4898112;29;20036;-65
2021/08/08 04:18:56;;;;;;;1.90;1.25;;;17.00;99.90;;;;;;4897789;29;20056;-65
2021/08/08 04:21:22;;;;;;;2.22;1.40;;;17.00;99.90;;;;;;4897919;29;20035;-65
2021/08/08 04:23:48;;;;;;;5.93;1.23;;;17.00;99.90;;;;;;4897946;29;20036;-65
2021/08/08 04:26:14;;;;;;;2.95;1.40;;;17.00;99.90;;;;;;4898055;29;20056;-65
2021/08/08 04:28:39;;;;;;;2.03;1.40;;;17.10;99.90;;;;;;4897498;29;20460;-65
2021/08/08 04:31:07;;;;;;;9.65;1.90;;;17.10;99.90;;;;;;4897662;29;20092;-65
2021/08/08 04:33:35;;;;;;;2.17;1.20;;;17.10;99.90;;;;;;4897423;29;20040;-65
2021/08/08 04:36:01;;;;;;;2.58;1.17;;;17.10;99.90;;;;;;4897900;29;20115;-65
2021/08/08 04:38:27;;;;;;;2.13;1.38;;;17.10;99.90;;;;;;4897742;29;20071;-65
2021/08/08 04:40:53;;;;;;;3.63;1.20;;;17.20;99.90;;;;;;4897453;29;20442;-65
2021/08/08 04:43:18;;;;;;;4.53;1.80;;;17.20;99.90;;;;;;4897339;29;20024;-65
2021/08/08 04:45:44;;;;;;;1.58;1.10;;;17.20;99.90;;;;;;4897425;29;20028;-65
2021/08/08 04:48:10;;;;;;;2.40;1.17;;;17.20;99.90;;;;;;4897653;29;20048;-65
2021/08/08 04:50:35;;;;;;;4.20;1.25;;;17.30;99.90;;;;;;4897088;29;20131;-65
2021/08/08 04:53:01;;;;;;;2.22;1.35;;;17.30;99.90;;;;;;4897283;29;20112;-65
2021/08/08 04:55:27;;;;;;;1.55;1.23;;;17.30;99.90;;;;;;4897484;29;20040;-65
2021/08/08 04:57:53;;;;;;;3.38;1.25;;;17.30;99.90;;;;;;4897290;29;20100;-65
2021/08/08 05:00:19;;;;;;;2.88;1.30;;;17.30;99.90;;;;;;4897207;29;20504;-65
2021/08/08 05:02:46;;;;;;;2.83;1.27;;;17.30;99.90;;;;;;4897013;29;20036;-65
2021/08/08 05:05:12;;;;;;;6.40;1.75;;;17.30;99.90;;;;;;4897199;29;20033;-65
2021/08/08 05:07:39;;;;;;;4.88;1.42;;;17.40;99.90;;;;;;4896868;29;20074;-65
2021/08/08 05:10:09;;;;;;;1.73;1.25;;;17.40;99.90;;;;;;4897396;29;20103;-65
2021/08/08 05:12:35;;;;;;;8.15;1.38;;;17.40;99.90;;;;;;4896164;29;20524;-65
2021/08/08 05:15:01;;;;;;;5.22;1.50;;;17.40;99.90;;;;;;4896931;29;20050;-65
2021/08/08 05:17:27;;;;;;;3.05;1.33;;;17.40;99.90;;;;;;4897298;29;20028;-65
2021/08/08 05:19:52;;;;;;;5.22;1.83;;;17.40;99.90;;;;;;4896836;29;20480;-65
2021/08/08 05:22:18;;;;;;;5.70;1.88;;;17.50;99.90;;;;;;4897176;29;20021;-65
2021/08/08 05:24:44;;;;;;;3.60;1.40;;;17.40;99.90;;;;;;4896714;29;20037;-65
2021/08/08 05:27:10;;;;;;;3.03;1.40;;;17.40;99.90;;;;;;4897132;29;20396;-65
2021/08/08 05:29:35;;;;;;;5.20;1.80;;;17.40;99.90;;;;;;4896771;29;20025;-65
2021/08/08 05:32:01;;;;;;;1.80;1.27;;;17.40;99.90;;;;;;4896936;29;20025;-65
2021/08/08 05:34:27;;;;;;;2.10;1.30;;;17.40;99.90;;;;;;4896903;29;20092;-65
2021/08/08 05:36:52;;;;;;;3.03;1.15;;;17.40;99.90;;;;;;4896748;29;20017;-65
2021/08/08 05:39:18;;;;;;;4.38;1.50;;;17.40;99.90;;;;;;4896749;29;20032;-65
2021/08/08 05:41:44;;;;;;;4.88;1.58;;;17.40;99.90;;;;;;4896891;29;20033;-65
2021/08/08 05:44:10;;;;;;;2.97;1.35;;;17.40;99.90;;;;;;4896738;29;20028;-65
2021/08/08 05:46:35;;;;;;;5.78;1.42;;;17.40;99.90;;;;;;4896565;29;20025;-65
2021/08/08 05:49:01;;;;;;;3.10;1.45;;;17.50;99.90;;;;;;4896757;29;20036;-65
2021/08/08 05:51:27;;;;;;;2.30;1.20;;;17.50;99.90;;;;;;4896728;29;20488;-65
2021/08/08 05:53:52;;;;;;;4.10;1.40;;;17.40;99.90;;;;;;4896351;29;20177;-65
2021/08/08 05:56:18;;;;;;;5.57;1.40;;;17.40;99.90;;;;;;4897033;29;20075;-65
2021/08/08 05:58:44;;;;;;;2.78;1.38;;;17.30;99.90;;;;;;4896457;29;20485;-65
2021/08/08 06:01:09;;;;;;;3.72;1.27;;;17.30;99.90;;;;;;4896715;29;20028;-65
2021/08/08 06:03:35;;;;;;;3.03;1.30;;;17.20;99.90;;;;;;4896453;29;20028;-66
2021/08/08 06:06:01;;;;;;;6.57;1.27;;;17.20;99.90;;;;;;4896897;29;20056;-66
2021/08/08 06:08:28;;;;;;;2.20;1.20;;;17.10;99.90;;;;;;4896500;29;20090;-65
2021/08/08 06:10:54;;;;;;;2.92;1.30;;;17.10;99.90;;;;;;4896731;29;20509;-66
2021/08/08 06:13:20;;;;;;;4.10;1.92;;;17.10;99.90;;;;;;4896705;29;20052;-65
2021/08/08 06:15:45;;;;;;;1.83;1.27;;;17.10;99.90;;;;;;4896393;29;20036;-65
2021/08/08 06:18:11;;;;;;;2.85;1.58;;;17.10;99.90;;;;;;4896306;29;20082;-65
2021/08/08 06:20:37;;;;;;;2.97;1.50;;;17.10;99.90;;;;;;4896610;29;20028;-65
2021/08/08 06:23:03;;;;;;;4.55;1.60;;;17.10;99.90;;;;;;4896356;29;20021;-66
2021/08/08 06:25:28;;;;;;;3.15;1.20;;;17.00;99.90;;;;;;4899433;29;20031;-66
2021/08/08 06:27:54;;;;;;;4.78;1.58;;;17.00;99.90;;;;;;4899723;29;20397;-66
2021/08/08 06:30:20;;;;;;;3.70;1.30;;;17.00;99.90;;;;;;4900161;29;20032;-66
2021/08/08 06:32:45;;;;;;;2.40;1.77;;;16.90;99.90;;;;;;4899969;29;20035;-66
2021/08/08 06:35:11;;;;;;;5.40;2.00;;;16.80;99.90;;;;;;4899688;29;20523;-66
2021/08/08 06:37:43;;;;;;;3.38;1.85;;;16.80;99.90;;;;;;4900198;29;20024;-66
2021/08/08 06:40:10;;;;;;;4.30;1.42;;;16.80;99.90;;;;;;4899629;29;20033;-66
2021/08/08 06:42:35;;;;;;;4.75;1.58;;;16.80;99.90;;;;;;4899530;29;20036;-66
2021/08/08 06:45:01;;;;;;;6.40;1.63;;;16.80;99.90;;;;;;4899617;29;20131;-66
2021/08/08 06:47:27;;;;;;;3.75;1.75;;;16.80;99.90;;;;;;4899651;29;20477;-66
2021/08/08 06:49:53;;;;;;;2.72;1.30;;;16.80;99.90;;;;;;4899412;29;20481;-66
2021/08/08 06:52:18;;;;;;;4.32;1.50;;;16.80;99.90;;;;;;4899562;29;20035;-66
2021/08/08 06:54:44;;;;;;;3.45;1.45;;;16.80;99.90;;;;;;4899158;29;20162;-66
2021/08/08 06:57:10;;;;;;;2.30;1.50;;;16.70;99.90;;;;;;4899472;29;20064;-66
2021/08/08 06:59:39;;;;;;;2.85;1.50;;;16.70;99.90;;;;;;4899639;29;20035;-66
2021/08/08 07:02:05;;;;;;;4.03;1.60;;;16.70;99.90;;;;;;4899304;29;20048;-66
2021/08/08 07:04:30;;;;;;;3.00;1.60;;;16.70;99.90;;;;;;4898007;29;20269;-66
2021/08/08 07:06:56;;;;;;;4.55;1.60;;;16.60;99.90;;;;;;4899445;29;20035;-66
2021/08/08 07:09:22;;;;;;;2.95;1.50;;;16.70;99.90;;;;;;4899277;29;20488;-66
2021/08/08 07:11:48;;;;;;;3.67;1.80;;;16.70;99.90;;;;;;4899020;29;20040;-66
2021/08/08 07:14:13;;;;;;;4.80;1.48;;;16.70;99.90;;;;;;4898999;29;20043;-66
2021/08/08 07:16:39;;;;;;;4.72;1.50;;;16.70;99.90;;;;;;4898976;29;20028;-66
2021/08/08 07:19:05;;;;;;;3.33;1.50;;;16.60;99.90;;;;;;4898955;29;20495;-66
2021/08/08 07:21:31;;;;;;;5.35;2.20;;;16.60;99.90;;;;;;4898931;29;20084;-66
2021/08/08 07:23:58;;;;;;;6.85;1.98;;;16.60;99.90;;;;;;4899322;29;20100;-66
2021/08/08 07:26:24;;;;;;;3.50;1.83;;;16.50;99.90;;;;;;4899268;29;20039;-66
2021/08/08 07:28:50;;;;;;;5.20;1.85;;;16.50;99.90;;;;;;4898928;29;20032;-66
2021/08/08 07:31:15;;;;;;;3.95;1.80;;;16.40;99.90;;;;;;4898801;29;20485;-66
2021/08/08 07:33:41;;;;;;;4.53;1.90;;;16.40;99.90;;;;;;4898488;29;20052;-67
2021/08/08 07:36:07;;;;;;;3.17;1.88;;;16.40;99.90;;;;;;4898108;29;20052;-66
2021/08/08 07:38:33;;;;;;;4.65;2.00;;;16.20;99.90;;;;;;4898812;29;20120;-65
2021/08/08 07:40:58;;;;;;;4.63;2.10;;;16.20;99.90;;;;;;4898512;29;20035;-65
2021/08/08 07:43:24;;;;;;;4.80;1.92;;;16.10;99.90;;;;;;4898428;29;20093;-65
2021/08/08 07:45:50;;;;;;;4.70;2.50;;;16.00;99.90;;;;;;4898788;29;20024;-65
2021/08/08 07:48:15;;;;;;;8.48;2.30;;;15.90;99.90;;;;;;4898677;29;20029;-65
2021/08/08 07:50:41;;;;;;;4.57;2.03;;;15.80;99.90;;;;;;4898189;29;20096;-65
2021/08/08 07:53:07;;;;;;;8.65;2.78;;;15.70;99.90;;;;;;4898745;29;20035;-65
2021/08/08 07:55:33;;;;;;;4.30;2.10;;;15.60;99.90;;;;;;4898126;29;20392;-65
2021/08/08 07:57:58;;;;;;;6.95;2.22;;;15.50;99.90;;;;;;4898210;29;20441;-65
2021/08/08 08:00:24;;;;;;;12.85;3.05;;;15.50;99.90;;;;;;4898181;29;20097;-65
2021/08/08 08:02:50;;;;;;;5.88;2.20;;;15.50;99.90;;;;;;4897122;29;20033;-65
2021/08/08 08:05:16;;;;;;;6.53;2.58;;;15.40;99.90;;;;;;4898362;29;20029;-65
2021/08/08 08:07:41;;;;;;;6.18;2.00;;;15.40;99.90;;;;;;4898355;29;20025;-65
2021/08/08 08:10:08;;;;;;;7.00;2.45;;;15.40;99.90;;;;;;4898344;29;20492;-65
2021/08/08 08:12:33;;;;;;;3.80;2.10;;;15.40;99.90;;;;;;4898315;29;20071;-67
2021/08/08 08:14:59;;;;;;;7.30;2.20;;;15.40;99.90;;;;;;4898012;29;20868;-65
2021/08/08 08:17:25;;;;;;;9.75;2.38;;;15.40;99.90;;;;;;4897924;29;20033;-65
2021/08/08 08:19:50;;;;;;;6.40;2.38;;;15.40;99.90;;;;;;4897757;29;20032;-65
2021/08/08 08:22:16;;;;;;;6.25;2.47;;;15.40;99.90;;;;;;4898201;29;20493;-65
2021/08/08 08:24:44;;;;;;;7.88;2.60;;;15.40;99.90;;;;;;4897888;29;20033;-65
2021/08/08 08:27:10;;;;;;;5.20;2.42;;;15.30;99.90;;;;;;4897873;29;20056;-65
2021/08/08 08:29:35;;;;;;;7.28;3.10;;;15.30;99.90;;;;;;4897616;29;20044;-65
2021/08/08 08:32:01;;;;;;;8.05;2.80;;;15.40;99.90;;;;;;4898199;29;20028;-65
2021/08/08 08:34:27;;;;;;;8.38;2.40;;;15.40;99.90;;;;;;4897529;29;20489;-65
2021/08/08 08:36:53;;;;;;;6.15;2.72;;;15.40;99.90;;;;;;4897529;29;20032;-65
2021/08/08 08:39:18;;;;;;;4.47;2.28;;;15.40;99.90;;;;;;4897812;29;20104;-65
2021/08/08 08:41:45;;;;;;;10.73;2.47;;;15.30;99.90;;;;;;4897685;29;20492;-65
2021/08/08 08:44:11;;;;;;;7.93;2.53;;;15.30;99.90;;;;;;4897483;29;20496;-65
2021/08/08 08:46:38;;;;;;;8.02;2.80;;;15.30;99.90;;;;;;4897560;29;20123;-65
2021/08/08 08:49:05;;;;;;;7.50;2.58;;;15.30;99.90;;;;;;4897311;29;20115;-65
2021/08/08 08:51:37;;;;;;;7.63;2.50;;;15.30;99.90;;;;;;4897343;29;20112;-65
2021/08/08 08:54:03;;;;;;;9.38;2.97;;;15.30;99.90;;;;;;4897258;29;20032;-65
2021/08/08 08:56:30;;;;;;;4.63;2.35;;;15.30;99.90;;;;;;4897696;29;20024;-65
2021/08/08 08:58:57;;;;;;;3.72;2.42;;;15.30;99.90;;;;;;4897106;29;20067;-65
2021/08/08 09:01:23;;;;;;;6.03;2.35;;;15.30;99.90;;;;;;4897486;29;20029;-65
2021/08/08 09:03:49;;;;;;;6.32;2.17;;;15.30;99.90;;;;;;4896247;29;20121;-64
2021/08/08 09:06:14;;;;;;;5.22;2.10;;;15.30;99.90;;;;;;4896972;29;20039;-66
2021/08/08 09:08:40;;;;;;;2.53;1.20;;;15.40;99.90;;;;;;4896905;29;20028;-65
2021/08/08 09:11:10;;;;;;;4.00;1.70;;;15.30;99.90;;;;;;4896070;29;20033;-66
2021/08/08 09:13:57;;;;;;;4.47;1.90;;;15.20;99.90;;;;;;4896939;29;20028;-65
2021/08/08 09:16:24;;;;;;;2.25;1.40;;;15.20;99.90;;;;;;4897383;29;20060;-66
2021/08/08 09:18:56;;;;;;;3.00;1.73;;;15.20;99.90;;;;;;4895646;29;20032;-66
2021/08/08 09:21:23;;;;;;;1.38;1.27;;;15.20;99.90;;;;;;4897275;29;20093;-66
2021/08/08 09:23:54;;;;;;;2.60;1.35;;;15.20;99.90;;;;;;4897064;29;20042;-65
2021/08/08 09:26:33;;;;;;;2.05;1.40;;;15.20;99.90;;;;;;4897098;29;20029;-67
2021/08/08 09:29:15;;;;;;;4.13;1.30;;;15.10;99.90;;;;;;4896848;29;20032;-67
2021/08/08 09:31:49;;;;;;;3.05;1.38;;;15.10;99.90;;;;;;4896447;29;20060;-67
2021/08/08 09:34:28;;;;;;;2.20;1.20;;;15.10;99.90;;;;;;4896623;29;20037;-66
2021/08/08 09:36:56;;;;;;;3.78;1.40;;;15.10;99.90;;;;;;4895813;29;20552;-67
2021/08/08 09:39:32;;;;;;;2.22;1.40;;;15.10;99.90;;;;;;4896322;29;20512;-67
2021/08/08 09:42:09;;;;;;;3.75;1.45;;;15.10;99.90;;;;;;4896846;29;20035;-68
2021/08/08 09:44:36;;;;;;;2.63;1.33;;;15.10;99.90;;;;;;4896770;29;20426;-67
2021/08/08 09:47:02;;;;;;;3.80;1.70;;;15.10;99.90;;;;;;4896684;29;20036;-67
2021/08/08 09:49:28;;;;;;;3.92;1.60;;;15.10;99.90;;;;;;4896561;29;20493;-67
2021/08/08 09:51:54;;;;;;;5.38;1.65;;;15.10;99.90;;;;;;4896903;29;20039;-68
2021/08/08 09:54:21;;;;;;;4.90;1.77;;;15.10;99.90;;;;;;4896917;29;20032;-68
2021/08/08 09:57:00;;;;;;;3.90;1.38;;;15.10;99.90;;;;;;4896679;29;20024;-68
2021/08/08 09:59:26;;;;;;;3.65;1.70;;;15.10;99.90;;;;;;4897949;29;20060;-68
2021/08/08 10:01:52;;;;;;;4.50;1.60;;;15.10;99.90;;;;;;4900330;29;20071;-68
2021/08/08 10:04:18;;;;;;;3.88;1.65;;;15.10;99.90;;;;;;4900383;29;20036;-68
2021/08/08 10:06:47;;;;;;;2.22;1.63;;;15.20;99.90;;;;;;4900354;29;20080;-68
2021/08/08 10:09:13;;;;;;;4.18;1.30;;;15.20;99.90;;;;;;4900283;29;20040;-68
2021/08/08 10:11:46;;;;;;;2.35;1.40;;;15.20;99.90;;;;;;4900370;29;20025;-68
2021/08/08 10:14:13;;;;;;;2.53;1.40;;;15.20;99.90;;;;;;4900446;29;20047;-68
2021/08/08 10:16:42;;;;;;;2.10;1.27;;;15.30;99.90;;;;;;4900206;29;20025;-67
2021/08/08 10:19:09;;;;;;;2.40;1.20;;;15.40;99.90;;;;;;4899990;29;20115;-68
2021/08/08 10:21:41;;;;;;;1.70;1.30;;;15.40;99.90;;;;;;4900515;29;20351;-67
2021/08/08 10:24:08;;;;;;;3.58;1.60;;;15.40;99.90;;;;;;4899923;29;20036;-66
2021/08/08 10:26:35;;;;;;;2.60;1.40;;;15.40;99.90;;;;;;4900409;29;20025;-68
2021/08/08 10:29:02;;;;;;;6.63;1.60;;;15.50;99.90;;;;;;4899953;29;20124;-67
2021/08/08 10:31:30;;;;;;;3.25;1.67;;;15.40;99.90;;;;;;4900327;29;20044;-67
2021/08/08 10:33:58;;;;;;;4.30;1.50;;;15.40;99.90;;;;;;4899856;29;20059;-67
2021/08/08 10:36:30;;;;;;;2.92;1.50;;;15.40;99.90;;;;;;4899967;29;20116;-67
2021/08/08 10:39:16;;;;;;;2.63;1.48;;;15.40;99.90;;;;;;4899944;29;20591;-67
2021/08/08 10:41:56;;;;;;;6.13;1.63;;;15.30;99.90;;;;;;4899733;29;20099;-67
2021/08/08 10:44:22;;;;;;;3.45;1.58;;;15.30;99.90;;;;;;4899974;29;20028;-65
2021/08/08 10:46:53;;;;;;;3.63;1.90;;;15.40;99.90;;;;;;4899658;29;20032;-66
2021/08/08 10:49:34;;;;;;;3.88;1.45;;;15.40;99.90;;;;;;4899599;29;20051;-66
2021/08/08 10:52:02;;;;;;;3.22;1.60;;;15.40;99.90;;;;;;4899428;29;20041;-66
2021/08/08 10:54:40;;;;;;;2.17;1.45;;;15.40;99.90;;;;;;4899375;29;20040;-67
2021/08/08 10:57:11;;;;;;;4.63;1.90;;;15.40;99.90;;;;;;4899699;29;20052;-67
2021/08/08 10:59:47;;;;;;;;;;;15.40;99.90;;;;;;4899850;29;20025;-66
2021/08/08 11:02:15;;;;;;;5.13;1.77;;;15.40;99.90;;;;;;4899324;29;20324;-67
2021/08/08 11:04:41;;;;;;;3.22;1.80;;;15.50;99.90;;;;;;4899251;29;20511;-66
2021/08/08 11:07:08;;;;;;;3.92;2.00;;;15.50;99.90;;;;;;4899487;29;20029;-66
2021/08/08 11:09:37;;;;;;;2.38;1.35;;;15.50;99.90;;;;;;4899207;29;20484;-66
2021/08/08 11:12:04;;;;;;;2.15;1.38;;;15.60;99.90;;;;;;4899197;29;20052;-66
2021/08/08 11:14:30;;;;;;;4.97;1.60;;;15.60;99.90;;;;;;4899134;29;20513;-66
2021/08/08 11:17:05;;;;;;;5.22;1.52;;;15.60;99.90;;;;;;4899060;29;20032;-66
2021/08/08 11:19:35;;;;;;;2.88;1.38;;;15.60;99.90;;;;;;4899038;29;20036;-66
2021/08/08 11:22:13;;;;;;;1.88;1.52;;;15.60;99.90;;;;;;4898948;29;20469;-66
2021/08/08 11:24:40;;;;;;;4.70;1.50;;;15.60;99.90;;;;;;4899020;29;20032;-66
2021/08/08 11:27:07;;;;;;;5.20;1.55;;;15.60;99.90;;;;;;4899050;29;20028;-66
2021/08/08 11:29:34;;;;;;;3.33;1.60;;;15.60;99.90;;;;;;4898873;29;20057;-66
2021/08/08 11:32:03;;;;;;;4.32;1.27;;;15.70;99.90;;;;;;4898835;29;20036;-65
2021/08/08 11:34:29;;;;;;;3.25;2.10;;;15.70;99.90;;;;;;4898711;29;20071;-65
2021/08/08 11:36:56;;;;;;;3.80;1.42;;;15.80;99.90;;;;;;4898632;29;20580;-66
2021/08/08 11:39:29;;;;;;;6.72;1.90;;;15.70;99.90;;;;;;4898944;29;20029;-66
2021/08/08 11:42:08;;;;;;;5.65;2.17;;;15.80;99.90;;;;;;4898886;29;20031;-66
2021/08/08 11:44:42;;;;;;;5.72;1.63;;;15.80;99.90;;;;;;4898619;29;20024;-66
2021/08/08 11:47:09;;;;;;;3.25;1.33;;;15.80;99.90;;;;;;4898593;29;20025;-65
2021/08/08 11:49:46;;;;;;;2.80;1.38;;;15.80;99.90;;;;;;4898449;29;20048;-65
2021/08/08 11:52:20;;;;;;;2.58;1.40;;;15.90;99.90;;;;;;4898883;29;20044;-66
2021/08/08 11:54:48;;;;;;;3.97;1.70;;;15.90;99.90;;;;;;4898393;29;20481;-65
2021/08/08 11:57:27;;;;;;;4.63;1.30;;;15.90;99.90;;;;;;4898443;29;20085;-66
2021/08/08 11:59:54;;;;;;;3.42;1.20;;;15.90;99.90;;;;;;4898238;29;20480;-65
2021/08/08 12:02:20;;;;;;;2.35;1.50;;;15.90;99.90;;;;;;4898447;29;20042;-65
2021/08/08 12:04:45;;;;;;;1.73;1.20;;;16.00;99.90;;;;;;4898270;29;20112;-66
2021/08/08 12:07:11;;;;;;;2.85;1.20;;;16.00;99.90;;;;;;4897008;29;20032;-66
2021/08/08 12:09:44;;;;;;;2.38;1.20;;;16.00;99.90;;;;;;4898341;29;20058;-65
2021/08/08 12:12:10;;;;;;;2.55;1.05;;;16.00;99.90;;;;;;4898044;29;20033;-66
2021/08/08 12:14:43;;;;;;;2.03;1.17;;;16.10;99.90;;;;;;4898211;29;20089;-65
2021/08/08 12:17:16;;;;;;;1.27;1.10;;;16.10;99.90;;;;;;4897838;29;20040;-65
2021/08/08 12:19:50;;;;;;;2.63;1.23;;;16.10;99.90;;;;;;4897831;29;20548;-66
2021/08/08 12:22:23;;;;;;;2.47;1.10;;;16.20;99.90;;;;;;4897415;29;20032;-67
2021/08/08 12:24:59;;;;;;;2.85;1.33;;;16.20;99.90;;;;;;4898099;29;20041;-66
2021/08/08 12:27:53;;;;;;;2.13;1.08;;;16.30;99.90;;;;;;4897932;29;20032;-67
2021/08/08 12:30:18;;;;;;;2.08;1.00;;;16.20;99.90;;;;;;4896007;29;20040;-67
2021/08/08 12:32:45;;;;;;;2.55;1.23;;;16.30;99.90;;;;;;4897777;29;20708;-67
2021/08/08 12:35:13;;;;;;;1.85;1.10;;;16.30;99.90;;;;;;4897390;29;20048;-67
2021/08/08 12:37:40;;;;;;;2.53;1.10;;;16.30;99.90;;;;;;4897718;29;20080;-67
2021/08/08 12:40:10;;;;;;;3.35;1.15;;;16.30;99.90;;;;;;4897457;29;20021;-67
2021/08/08 12:42:36;;;;;;;1.85;1.05;;;16.40;99.90;;;;;;4897581;29;20489;-67
2021/08/08 12:45:08;;;;;;;2.75;0.98;;;16.40;99.90;;;;;;4897450;29;20064;-67
2021/08/08 12:47:35;;;;;;;2.92;1.05;;;16.40;99.90;;;;;;4897833;29;20357;-67
2021/08/08 12:50:16;;;;;;;1.63;1.20;;;16.50;99.90;;;;;;4897031;29;20097;-67
2021/08/08 12:52:42;;;;;;;1.60;0.93;;;16.50;99.90;;;;;;4897480;29;20029;-67
2021/08/08 12:55:08;;;;;;;2.28;1.30;;;16.50;99.90;;;;;;4897328;29;20037;-67
2021/08/08 12:57:34;;;;;;;3.10;1.30;;;16.50;99.90;;;;;;4897421;29;20047;-66
2021/08/08 13:00:00;;;;;;;2.20;1.30;;;16.50;99.90;;;;;;4897218;29;20388;-67
2021/08/08 13:02:25;;;;;;;3.45;1.30;;;16.50;99.90;;;;;;4897318;29;20020;-67
2021/08/08 13:04:51;;;;;;;1.23;1.10;;;16.50;99.90;;;;;;4897503;29;20025;-67
2021/08/08 13:07:17;;;;;;;1.30;1.00;;;16.50;99.90;;;;;;4897164;29;20549;-67
2021/08/08 13:09:43;;;;;;;1.50;1.05;;;16.50;99.90;;;;;;4897541;29;20041;-68
2021/08/08 13:12:09;;;;;;;2.55;1.20;;;16.50;99.90;;;;;;4897492;29;20021;-67
2021/08/08 13:14:34;;;;;;;1.33;1.15;;;16.60;99.90;;;;;;4897121;29;20657;-67
2021/08/08 13:17:00;;;;;;;1.92;1.20;;;16.60;99.90;;;;;;4897056;29;20025;-67